createdAt,value
2023-02-02T00:00:19.752Z,78.400000
2023-02-02T00:05:31.758Z,78.000000
2023-02-02T00:10:19.906Z,79.000000
2023-02-02T00:15:19.660Z,79.000000
2023-02-02T00:20:26.251Z,79.000000
2023-02-02T00:25:19.764Z,79.000000
2023-02-02T00:30:22.093Z,79.000000
2023-02-02T00:35:19.775Z,78.000000
2023-02-02T00:40:21.270Z,75.333333
2023-02-02T00:45:20.187Z,74.181818
2023-02-02T00:50:21.127Z,74.700000
2023-02-02T00:55:20.251Z,75.000000
2023-02-02T01:00:20.168Z,75.000000
2023-02-02T01:05:20.167Z,75.583333
2023-02-02T01:10:21.512Z,76.333333
2023-02-02T01:15:20.153Z,77.000000
2023-02-02T01:20:20.148Z,77.083333
2023-02-02T01:25:20.236Z,77.909091
2023-02-02T01:30:22.296Z,79.444444
2023-02-02T01:35:20.084Z,80.000000
2023-02-02T01:40:28.614Z,79.200000
2023-02-02T01:45:20.739Z,78.750000
2023-02-02T01:50:22.781Z,78.000000
2023-02-02T01:55:20.519Z,78.846154
2023-02-02T02:00:29.005Z,79.000000
2023-02-02T02:05:19.940Z,80.000000
2023-02-02T02:10:23.231Z,79.250000
2023-02-02T02:15:20.668Z,79.000000
2023-02-02T02:20:20.708Z,79.000000
2023-02-02T02:25:20.802Z,79.000000
2023-02-02T02:30:20.733Z,79.000000
2023-02-02T02:35:20.638Z,79.000000
2023-02-02T02:40:21.080Z,79.000000
2023-02-02T02:45:21.206Z,79.000000
2023-02-02T02:50:21.089Z,79.000000
2023-02-02T02:55:21.098Z,79.000000
2023-02-02T03:00:21.117Z,79.000000
2023-02-02T03:05:22.052Z,79.000000
2023-02-02T03:10:20.979Z,79.000000
2023-02-02T03:15:21.470Z,79.000000
2023-02-02T03:20:21.091Z,79.666667
2023-02-02T03:25:22.909Z,79.100000
2023-02-02T03:30:21.246Z,80.000000
2023-02-02T03:35:21.113Z,80.000000
2023-02-02T03:40:22.635Z,80.700000
2023-02-02T03:45:23.096Z,81.000000
2023-02-02T03:50:21.627Z,81.416667
2023-02-02T03:55:21.830Z,82.000000
2023-02-02T04:00:21.541Z,82.000000
2023-02-02T04:05:23.664Z,82.000000
2023-02-02T04:10:21.547Z,82.363636
2023-02-02T04:15:21.617Z,82.000000
2023-02-02T04:20:21.678Z,82.000000
2023-02-02T04:25:24.212Z,82.000000
2023-02-02T04:30:21.603Z,82.500000
2023-02-02T04:35:21.812Z,83.000000
2023-02-02T04:40:21.922Z,83.000000
2023-02-02T04:45:24.735Z,83.363636
2023-02-02T04:50:22.140Z,83.909091
2023-02-02T04:55:22.296Z,84.461538
2023-02-02T05:00:22.127Z,85.000000
2023-02-02T05:05:24.931Z,85.000000
2023-02-02T05:10:21.949Z,85.000000
2023-02-02T05:15:22.308Z,85.333333
2023-02-02T05:20:22.051Z,85.818182
2023-02-02T05:25:26.002Z,85.000000
2023-02-02T05:30:22.039Z,85.000000
2023-02-02T05:35:19.635Z,84.166667
2023-02-02T05:40:22.818Z,85.000000
2023-02-02T05:45:22.971Z,85.000000
2023-02-02T05:50:22.472Z,85.000000
2023-02-02T05:55:20.128Z,85.000000
2023-02-02T06:00:23.261Z,84.428571
2023-02-02T06:05:22.797Z,84.000000
2023-02-02T06:10:22.542Z,84.000000
2023-02-02T06:15:23.167Z,83.076923
2023-02-02T06:20:25.009Z,82.800000
2023-02-02T06:25:22.661Z,82.416667
2023-02-02T06:30:22.471Z,82.111111
2023-02-02T06:35:21.133Z,81.083333
2023-02-02T06:40:25.358Z,81.000000
2023-02-02T06:45:23.140Z,80.300000
2023-02-02T06:50:22.927Z,80.181818
2023-02-02T06:55:21.572Z,80.583333
2023-02-02T07:00:24.723Z,79.888889
2023-02-02T07:05:23.230Z,79.166667
2023-02-02T07:11:13.182Z,78.818182
2023-02-02T07:15:23.341Z,79.000000
2023-02-02T07:20:25.293Z,78.600000
2023-02-02T07:25:28.273Z,78.750000
2023-02-02T07:30:19.536Z,78.090909
2023-02-02T07:35:23.242Z,77.727273
2023-02-02T07:40:25.714Z,78.000000
2023-02-02T07:45:24.541Z,77.846154
2023-02-02T07:50:19.803Z,77.250000
2023-02-02T07:55:23.308Z,77.000000
2023-02-02T08:00:26.109Z,76.363636
2023-02-02T08:05:23.723Z,76.300000
2023-02-02T08:10:20.154Z,76.000000
2023-02-02T08:15:23.534Z,75.769231
2023-02-02T08:20:23.376Z,75.100000
2023-02-02T08:25:23.630Z,75.000000
2023-02-02T08:30:23.371Z,74.900000
2023-02-02T08:35:24.437Z,75.333333
2023-02-02T08:40:23.834Z,74.800000
2023-02-02T08:46:02.463Z,74.166667
2023-02-02T08:50:23.845Z,73.090909
2023-02-02T08:55:24.748Z,72.333333
2023-02-02T09:00:27.682Z,72.375000
2023-02-02T09:05:24.247Z,71.916667
2023-02-02T09:10:21.874Z,71.500000
2023-02-02T09:15:25.484Z,71.916667
2023-02-02T09:20:23.899Z,70.833333
2023-02-02T09:25:19.344Z,70.416667
2023-02-02T09:30:23.913Z,69.636364
2023-02-02T09:35:26.041Z,70.083333
2023-02-02T09:40:24.228Z,69.750000
2023-02-02T09:45:20.805Z,69.416667
2023-02-02T09:50:24.298Z,69.583333
2023-02-02T09:55:26.356Z,69.500000
2023-02-02T10:00:25.541Z,68.777778
2023-02-02T10:05:20.145Z,67.800000
2023-02-02T10:10:24.216Z,67.272727
2023-02-02T10:15:27.010Z,67.363636
2023-02-02T10:20:24.620Z,67.090909
2023-02-02T10:25:20.999Z,67.222222
2023-02-02T10:30:24.595Z,68.300000
2023-02-02T10:35:24.194Z,68.090909
2023-02-02T10:40:30.415Z,66.363636
2023-02-02T10:45:21.429Z,65.636364
2023-02-02T10:50:25.114Z,65.222222
2023-02-02T10:55:27.658Z,64.846154
2023-02-02T11:00:25.233Z,65.454545
2023-02-02T11:05:24.938Z,66.692308
2023-02-02T11:10:25.304Z,66.181818
2023-02-02T11:15:24.704Z,66.909091
2023-02-02T11:20:19.035Z,67.444444
2023-02-02T11:25:24.762Z,67.384615
2023-02-02T11:30:26.099Z,66.125000
2023-02-02T11:35:24.764Z,65.800000
2023-02-02T11:40:20.320Z,65.363636
2023-02-02T11:45:25.129Z,64.272727
2023-02-02T11:50:26.546Z,62.285714
2023-02-02T11:55:25.067Z,62.555556
2023-02-02T12:00:20.346Z,62.100000
2023-02-02T12:05:23.476Z,62.250000
2023-02-02T12:10:27.193Z,63.200000
2023-02-02T12:15:25.410Z,63.750000
2023-02-02T12:20:20.847Z,64.400000
2023-02-02T12:25:25.522Z,63.272727
2023-02-02T12:30:28.903Z,61.750000
2023-02-02T12:35:25.110Z,60.666667
2023-02-02T12:40:21.695Z,61.181818
2023-02-02T12:45:26.807Z,61.307692
2023-02-02T12:50:28.225Z,62.000000
2023-02-02T12:55:18.960Z,62.333333
2023-02-02T13:00:22.117Z,62.700000
2023-02-02T13:05:25.489Z,63.000000
2023-02-02T13:10:28.574Z,63.090909
2023-02-02T13:15:19.369Z,63.363636
2023-02-02T13:20:22.631Z,63.900000
2023-02-02T13:25:26.402Z,64.800000
2023-02-02T13:30:25.662Z,65.000000
2023-02-02T13:35:20.287Z,65.200000
2023-02-02T13:40:25.939Z,66.000000
2023-02-02T13:45:26.961Z,66.500000
2023-02-02T13:50:25.851Z,67.000000
2023-02-02T13:55:20.744Z,67.000000
2023-02-02T14:00:26.018Z,67.083333
2023-02-02T14:05:27.239Z,67.909091
2023-02-02T14:10:30.142Z,68.300000
2023-02-02T14:15:21.086Z,68.727273
2023-02-02T14:20:26.013Z,69.000000
2023-02-02T14:25:27.946Z,69.833333
2023-02-02T14:30:18.777Z,70.000000
2023-02-02T14:35:21.907Z,70.583333
2023-02-02T14:40:26.396Z,70.600000
2023-02-02T14:45:28.636Z,71.090909
2023-02-02T14:50:19.359Z,70.916667
2023-02-02T14:55:22.465Z,68.555556
2023-02-02T15:00:26.399Z,67.181818
2023-02-02T15:05:28.875Z,75.090909
2023-02-02T15:10:19.556Z,83.400000
2023-02-02T15:15:22.987Z,87.818182
2023-02-02T15:20:26.532Z,89.545455
2023-02-02T15:25:29.207Z,91.000000
2023-02-02T15:30:20.194Z,91.000000
2023-02-02T15:35:23.546Z,90.000000
2023-02-02T15:40:26.779Z,90.700000
2023-02-02T15:45:31.462Z,89.583333
2023-02-02T15:50:20.552Z,89.000000
2023-02-02T15:55:24.295Z,89.000000
2023-02-02T16:00:39.240Z,89.000000
2023-02-02T16:05:27.269Z,88.153846
2023-02-02T16:10:20.996Z,88.000000
2023-02-02T16:15:27.442Z,88.000000
2023-02-02T16:20:27.362Z,88.000000
2023-02-02T16:25:27.267Z,88.000000
2023-02-02T16:30:21.709Z,88.000000
2023-02-02T16:35:27.034Z,88.000000
2023-02-02T16:40:28.072Z,88.000000
2023-02-02T16:45:19.247Z,87.333333
2023-02-02T16:50:22.187Z,87.916667
2023-02-02T16:55:36.493Z,88.000000
2023-02-02T17:00:28.515Z,88.000000
2023-02-02T17:05:19.557Z,87.083333
2023-02-02T17:10:22.723Z,87.250000
2023-02-02T17:15:27.692Z,87.000000
2023-02-02T17:20:28.833Z,87.000000
2023-02-02T17:25:20.252Z,87.000000
2023-02-02T17:30:23.404Z,87.000000
2023-02-02T17:35:28.666Z,87.000000
2023-02-02T17:40:29.676Z,87.000000
2023-02-02T17:45:20.585Z,87.000000
2023-02-02T17:50:24.194Z,87.000000
2023-02-02T17:55:28.062Z,87.000000
2023-02-02T18:00:31.605Z,87.000000
2023-02-02T18:05:21.038Z,86.818182
2023-02-02T18:10:24.831Z,86.750000
2023-02-02T18:15:28.252Z,86.222222
2023-02-02T18:20:30.636Z,86.111111
2023-02-02T18:25:21.721Z,86.538462
2023-02-02T18:30:28.054Z,87.000000
2023-02-02T18:35:29.192Z,87.000000
2023-02-02T18:40:18.945Z,87.000000
2023-02-02T18:45:22.088Z,86.666667
2023-02-02T18:50:26.604Z,86.000000
2023-02-02T18:55:28.739Z,86.416667
2023-02-02T19:00:19.406Z,86.000000
2023-02-02T19:05:22.809Z,86.000000
2023-02-02T19:10:28.367Z,86.272727
2023-02-02T19:15:29.192Z,86.545455
2023-02-02T19:20:19.723Z,87.000000
2023-02-02T19:25:23.103Z,87.000000
2023-02-02T19:30:26.571Z,87.000000
2023-02-02T19:35:29.485Z,87.000000
2023-02-02T19:40:20.428Z,87.000000
2023-02-02T19:45:23.620Z,87.000000
2023-02-02T19:50:29.066Z,87.000000
2023-02-02T19:55:29.885Z,87.000000
2023-02-02T20:00:20.802Z,87.000000
2023-02-02T20:05:23.922Z,87.000000
2023-02-02T20:10:29.121Z,87.000000
2023-02-02T20:15:30.238Z,87.000000
2023-02-02T20:20:21.186Z,87.000000
2023-02-02T20:25:24.684Z,87.000000
2023-02-02T20:30:29.108Z,87.000000
2023-02-02T20:35:30.797Z,87.000000
2023-02-02T20:40:21.675Z,87.000000
2023-02-02T20:45:25.185Z,86.800000
2023-02-02T20:50:29.007Z,86.000000
2023-02-02T20:55:19.205Z,86.000000
2023-02-02T21:00:22.235Z,86.000000
2023-02-02T21:05:25.497Z,85.500000
2023-02-02T21:10:29.199Z,85.000000
2023-02-02T21:15:19.508Z,85.800000
2023-02-02T21:20:22.705Z,86.000000
2023-02-02T21:25:26.323Z,86.000000
2023-02-02T21:30:29.661Z,86.000000
2023-02-02T21:35:20.195Z,86.000000
2023-02-02T21:40:23.432Z,86.000000
2023-02-02T21:45:26.381Z,86.000000
2023-02-02T21:50:30.698Z,86.000000
2023-02-02T21:55:20.472Z,86.000000
2023-02-02T22:00:24.388Z,86.000000
2023-02-02T22:05:29.454Z,86.000000
2023-02-02T22:10:29.956Z,86.181818
2023-02-02T22:15:20.992Z,86.000000
2023-02-02T22:20:24.735Z,86.000000
2023-02-02T22:25:29.569Z,85.727273
2023-02-02T22:30:30.734Z,85.272727
2023-02-02T22:35:21.561Z,85.454545
2023-02-02T22:40:25.203Z,85.000000
2023-02-02T22:45:30.004Z,85.000000
2023-02-02T22:50:18.853Z,85.000000
2023-02-02T22:55:22.064Z,85.000000
2023-02-02T23:00:25.823Z,85.000000
2023-02-02T23:05:29.959Z,85.000000
2023-02-02T23:10:19.275Z,85.000000
2023-02-02T23:15:22.486Z,85.000000
2023-02-02T23:20:25.810Z,85.153846
2023-02-02T23:25:28.835Z,86.000000
2023-02-02T23:30:19.955Z,85.909091
2023-02-02T23:35:23.025Z,85.545455
2023-02-02T23:40:26.353Z,86.000000
2023-02-02T23:45:30.459Z,86.000000
2023-02-02T23:50:20.208Z,86.000000
2023-02-02T23:55:23.421Z,85.636364
